createdAt,value
2022-11-01T00:01:50.131Z,63.33
2022-11-01T00:04:17.089Z,66.57
2022-11-01T00:06:43.569Z,65.75
2022-11-01T00:09:09.953Z,66.35
2022-11-01T00:11:36.557Z,65.88
2022-11-01T00:14:03.005Z,66.53
2022-11-01T00:16:29.392Z,65.63
2022-11-01T00:18:56.082Z,61.47
2022-11-01T00:21:22.688Z,62.05
2022-11-01T00:23:49.258Z,56.90
2022-11-01T00:26:19.406Z,57.97
2022-11-01T00:28:46.299Z,57.13
2022-11-01T00:31:14.661Z,57.85
2022-11-01T00:33:41.050Z,58.58
2022-11-01T00:36:08.655Z,58.83
2022-11-01T00:38:35.729Z,58.65
2022-11-01T00:41:03.892Z,56.53
2022-11-01T00:43:34.342Z,57.17
2022-11-01T00:46:01.267Z,54.28
2022-11-01T00:48:28.154Z,53.50
2022-11-01T00:50:54.757Z,53.67
2022-11-01T00:53:21.446Z,54.00
2022-11-01T00:55:47.859Z,54.33
2022-11-01T00:58:14.343Z,56.03
2022-11-01T01:00:40.762Z,53.22
2022-11-01T01:03:07.377Z,52.85
2022-11-01T01:05:35.261Z,51.85
2022-11-01T01:08:02.343Z,49.30
2022-11-01T01:10:28.746Z,50.13
2022-11-01T01:12:55.149Z,50.17
2022-11-01T01:15:21.544Z,51.20
2022-11-01T01:17:47.927Z,50.50
2022-11-01T01:20:14.524Z,49.40
2022-11-01T01:22:41.722Z,44.42
2022-11-01T01:25:09.454Z,46.67
2022-11-01T01:27:36.253Z,46.20
2022-11-01T01:30:03.910Z,45.42
2022-11-01T01:32:30.752Z,42.45
2022-11-01T01:34:57.145Z,41.30
2022-11-01T01:37:23.554Z,45.03
2022-11-01T01:39:49.965Z,41.65
2022-11-01T01:42:24.060Z,44.10
2022-11-01T01:44:56.425Z,34.50
2022-11-01T01:47:26.114Z,35.47
2022-11-01T01:50:00.334Z,42.42
2022-11-01T01:52:30.413Z,38.65
2022-11-01T01:54:59.058Z,43.50
2022-11-01T01:57:26.235Z,41.35
2022-11-01T01:59:52.727Z,41.40
2022-11-01T02:02:20.476Z,40.55
2022-11-01T02:04:57.960Z,37.53
2022-11-01T02:07:25.168Z,39.42
2022-11-01T02:09:52.871Z,43.05
2022-11-01T02:12:19.289Z,44.97
2022-11-01T02:14:46.040Z,50.08
2022-11-01T02:17:43.498Z,45.40
2022-11-01T02:20:37.150Z,45.83
2022-11-01T02:23:13.245Z,42.70
2022-11-01T02:26:04.341Z,43.40
2022-11-01T02:28:50.249Z,46.17
2022-11-01T02:31:41.552Z,47.53
2022-11-01T02:34:24.544Z,49.13
2022-11-01T02:37:00.452Z,46.90
2022-11-01T02:39:32.618Z,46.33
2022-11-01T02:42:09.772Z,45.25
2022-11-01T02:44:41.841Z,41.58
2022-11-01T02:47:11.790Z,37.85
2022-11-01T02:49:41.465Z,35.97
2022-11-01T02:52:11.768Z,39.35
2022-11-01T02:54:49.324Z,37.20
2022-11-01T02:57:36.268Z,36.85
2022-11-01T03:00:24.524Z,36.35
2022-11-01T03:02:58.174Z,36.78
2022-11-01T03:05:39.247Z,37.17
2022-11-01T03:10:57.241Z,37.20
2022-11-01T03:13:32.415Z,36.40
2022-11-01T03:16:20.768Z,34.08
2022-11-01T03:18:59.439Z,34.58
2022-11-01T03:21:28.212Z,35.00
2022-11-01T03:24:03.266Z,33.55
2022-11-01T03:26:34.806Z,32.85
2022-11-01T03:29:06.640Z,32.67
2022-11-01T03:31:36.747Z,32.22
2022-11-01T03:34:11.078Z,30.80
2022-11-01T03:36:51.485Z,30.05
2022-11-01T03:39:22.699Z,31.85
2022-11-01T03:41:53.405Z,30.65
2022-11-01T03:44:20.009Z,32.40
2022-11-01T03:46:47.204Z,36.75
2022-11-01T03:49:18.429Z,42.10
2022-11-01T03:51:44.958Z,47.90
2022-11-01T03:54:11.371Z,51.10
2022-11-01T03:56:40.595Z,52.13
2022-11-01T03:59:08.492Z,50.17
2022-11-01T04:01:35.230Z,50.38
2022-11-01T04:04:01.876Z,50.78
2022-11-01T04:06:28.580Z,53.67
2022-11-01T04:08:55.588Z,54.03
2022-11-01T04:11:22.003Z,53.85
2022-11-01T04:13:48.401Z,53.47
2022-11-01T04:16:53.763Z,52.85
2022-11-01T04:19:39.137Z,49.97
2022-11-01T04:22:05.897Z,48.92
2022-11-01T04:24:32.278Z,47.33
2022-11-01T04:26:58.662Z,47.17
2022-11-01T04:29:25.043Z,46.88
2022-11-01T04:31:51.427Z,48.25
2022-11-01T04:34:37.760Z,48.78
2022-11-01T04:37:04.169Z,46.75
2022-11-01T04:39:30.622Z,50.50
2022-11-01T04:41:57.016Z,48.38
2022-11-01T04:44:23.418Z,51.08
2022-11-01T04:46:49.814Z,51.50
2022-11-01T04:49:16.201Z,50.42
2022-11-01T04:51:42.701Z,54.10
2022-11-01T04:54:09.119Z,53.53
2022-11-01T04:56:35.513Z,51.95
2022-11-01T04:59:01.920Z,55.78
2022-11-01T05:01:28.404Z,55.30
2022-11-01T05:03:55.698Z,55.75
2022-11-01T05:06:22.099Z,56.75
2022-11-01T05:08:48.907Z,57.45
2022-11-01T05:11:15.293Z,60.95
2022-11-01T05:13:41.857Z,56.70
2022-11-01T05:16:19.781Z,56.45
2022-11-01T05:18:46.340Z,61.10
2022-11-01T05:21:12.745Z,58.72
2022-11-01T05:23:39.145Z,57.72
2022-11-01T05:26:05.652Z,57.25
2022-11-01T05:28:32.035Z,57.47
2022-11-01T05:30:58.685Z,55.35
2022-11-01T05:33:25.073Z,51.47
2022-11-01T05:35:51.473Z,52.85
2022-11-01T05:38:17.870Z,51.05
2022-11-01T05:40:44.258Z,50.95
2022-11-01T05:43:10.654Z,50.60
2022-11-01T05:45:37.345Z,52.45
2022-11-01T05:48:04.799Z,52.05
2022-11-01T05:50:31.183Z,50.55
2022-11-01T05:53:07.447Z,51.80
2022-11-01T05:55:34.337Z,48.88
2022-11-01T05:58:00.751Z,46.72
2022-11-01T06:00:27.186Z,47.17
2022-11-01T06:02:53.563Z,47.05
2022-11-01T06:05:19.941Z,47.45
2022-11-01T06:07:46.354Z,46.60
2022-11-01T06:10:12.716Z,47.08
2022-11-01T06:12:39.113Z,47.35
2022-11-01T06:15:05.886Z,49.58
2022-11-01T06:17:32.269Z,51.25
2022-11-01T06:19:58.714Z,48.72
2022-11-01T06:22:25.130Z,46.28
2022-11-01T06:24:51.535Z,46.50
2022-11-01T06:27:17.932Z,47.65
2022-11-01T06:29:44.310Z,47.30
2022-11-01T06:32:10.710Z,47.40
2022-11-01T06:34:40.849Z,48.30
2022-11-01T06:37:10.405Z,46.95
2022-11-01T06:39:36.805Z,44.92
2022-11-01T06:42:03.293Z,46.33
2022-11-01T06:44:29.680Z,45.05
2022-11-01T06:46:56.049Z,46.75
2022-11-01T06:49:22.529Z,46.83
2022-11-01T06:51:49.158Z,44.08
2022-11-01T06:54:15.549Z,44.50
2022-11-01T06:56:41.949Z,44.33
2022-11-01T06:59:08.638Z,47.03
2022-11-01T07:01:35.151Z,47.55
2022-11-01T07:04:01.690Z,44.90
2022-11-01T07:06:30.768Z,44.20
2022-11-01T07:08:59.289Z,44.45
2022-11-01T07:11:30.997Z,44.83
2022-11-01T07:13:59.218Z,42.75
2022-11-01T07:16:26.790Z,44.25
2022-11-01T07:18:53.187Z,44.03
2022-11-01T07:21:19.598Z,42.85
2022-11-01T07:23:46.227Z,43.22
2022-11-01T07:26:12.630Z,43.25
2022-11-01T07:28:39.599Z,42.63
2022-11-01T07:31:06.305Z,44.03
2022-11-01T07:33:32.823Z,43.92
2022-11-01T07:36:01.001Z,44.38
2022-11-01T07:38:27.397Z,42.20
2022-11-01T07:40:54.672Z,43.47
2022-11-01T07:43:21.901Z,41.55
2022-11-01T07:45:48.892Z,41.53
2022-11-01T07:48:17.468Z,40.58
2022-11-01T07:50:44.691Z,41.78
2022-11-01T07:53:16.808Z,38.38
2022-11-01T07:55:44.199Z,39.92
2022-11-01T07:58:12.034Z,40.13
2022-11-01T08:00:39.755Z,37.90
2022-11-01T08:03:09.182Z,38.40
2022-11-01T08:05:36.549Z,37.50
2022-11-01T08:08:03.288Z,38.17
2022-11-01T08:10:30.315Z,38.20
2022-11-01T08:13:02.208Z,36.47
2022-11-01T08:15:28.995Z,37.00
2022-11-01T08:17:57.198Z,36.75
2022-11-01T08:20:25.804Z,37.83
2022-11-01T08:22:53.103Z,37.15
2022-11-01T08:25:19.596Z,37.45
2022-11-01T08:27:46.939Z,37.15
2022-11-01T08:30:14.890Z,35.80
2022-11-01T08:32:41.374Z,36.17
2022-11-01T08:35:08.869Z,34.97
2022-11-01T08:37:35.270Z,33.63
2022-11-01T08:40:03.551Z,34.83
2022-11-01T08:42:29.960Z,33.13
2022-11-01T08:44:56.457Z,32.75
2022-11-01T08:47:22.846Z,33.00
2022-11-01T08:49:49.256Z,32.33
2022-11-01T08:52:15.655Z,32.63
2022-11-01T08:54:42.091Z,31.63
2022-11-01T08:57:08.480Z,30.90
2022-11-01T08:59:34.868Z,31.00
2022-11-01T09:02:01.362Z,30.27
2022-11-01T09:04:27.896Z,30.05
2022-11-01T09:06:54.283Z,29.10
2022-11-01T09:09:20.794Z,28.70
2022-11-01T09:11:47.191Z,28.42
2022-11-01T09:14:13.573Z,28.33
2022-11-01T09:16:40.041Z,28.63
2022-11-01T09:19:06.473Z,27.80
2022-11-01T09:21:32.878Z,26.05
2022-11-01T09:23:59.902Z,28.48
2022-11-01T09:26:27.298Z,28.60
2022-11-01T09:28:58.537Z,27.08
2022-11-01T09:31:25.277Z,27.15
2022-11-01T09:33:54.946Z,26.52
2022-11-01T09:36:21.479Z,25.98
2022-11-01T09:38:47.886Z,26.55
2022-11-01T09:41:37.010Z,25.67
2022-11-01T09:44:06.089Z,26.45
2022-11-01T09:46:42.346Z,24.77
2022-11-01T09:49:12.528Z,25.55
2022-11-01T09:51:41.246Z,24.53
2022-11-01T09:54:10.419Z,25.35
2022-11-01T09:56:45.580Z,23.90
2022-11-01T09:59:44.577Z,22.08
2022-11-01T10:02:39.002Z,23.83
2022-11-01T10:05:40.865Z,22.13
2022-11-01T10:08:21.508Z,21.83
2022-11-01T10:11:14.914Z,21.48
2022-11-01T10:14:20.960Z,22.40
2022-11-01T10:17:14.640Z,21.17
2022-11-01T10:19:48.235Z,20.88
2022-11-01T10:22:32.379Z,21.30
2022-11-01T10:25:07.020Z,19.90
2022-11-01T10:27:42.782Z,21.75
2022-11-01T10:30:18.228Z,21.67
2022-11-01T10:33:02.311Z,22.80
2022-11-01T10:35:44.639Z,22.85
2022-11-01T10:38:41.457Z,22.40
2022-11-01T10:41:21.355Z,22.25
2022-11-01T10:43:54.165Z,23.92
2022-11-01T10:46:27.882Z,21.35
2022-11-01T10:48:59.606Z,21.60
2022-11-01T10:51:29.887Z,20.73
2022-11-01T10:54:01.940Z,21.42
2022-11-01T10:56:35.461Z,20.13
2022-11-01T10:59:08.081Z,19.95
2022-11-01T11:01:44.146Z,19.10
2022-11-01T11:04:22.362Z,18.27
2022-11-01T11:06:49.616Z,19.27
2022-11-01T11:09:28.731Z,19.73
2022-11-01T11:11:59.965Z,18.17
2022-11-01T11:14:28.634Z,17.27
2022-11-01T11:16:56.874Z,17.23
2022-11-01T11:19:29.162Z,16.95
2022-11-01T11:21:56.903Z,15.60
2022-11-01T11:24:36.014Z,13.82
2022-11-01T11:27:10.605Z,14.52
2022-11-01T11:29:48.848Z,14.25
2022-11-01T11:32:19.980Z,12.75
2022-11-01T11:35:08.820Z,12.27
2022-11-01T11:37:38.605Z,12.32
2022-11-01T11:40:26.679Z,12.95
2022-11-01T11:42:56.015Z,12.50
2022-11-01T11:45:29.474Z,12.23
2022-11-01T11:47:58.850Z,11.27
2022-11-01T11:50:34.563Z,11.48
2022-11-01T11:53:20.209Z,11.20
2022-11-01T11:55:48.672Z,11.57
2022-11-01T11:58:20.270Z,12.13
2022-11-01T12:00:50.171Z,10.93
2022-11-01T12:03:17.452Z,11.55
2022-11-01T12:05:59.820Z,10.95
2022-11-01T12:08:44.903Z,12.05
2022-11-01T12:11:12.040Z,11.75
2022-11-01T12:13:42.420Z,11.18
2022-11-01T12:16:17.738Z,11.45
2022-11-01T12:18:50.060Z,11.73
2022-11-01T12:21:34.288Z,11.82
2022-11-01T12:24:23.969Z,12.15
2022-11-01T12:26:53.357Z,11.35
2022-11-01T12:29:33.501Z,11.10
2022-11-01T12:32:16.556Z,10.80
2022-11-01T12:34:48.636Z,12.48
2022-11-01T12:37:23.407Z,9.75
2022-11-01T12:40:02.278Z,10.20
2022-11-01T12:42:35.521Z,10.00
2022-11-01T12:45:12.551Z,10.52
2022-11-01T12:47:44.118Z,10.52
2022-11-01T12:50:28.194Z,9.85
2022-11-01T12:53:10.425Z,9.55
2022-11-01T12:55:41.994Z,9.73
2022-11-01T12:58:16.921Z,10.05
2022-11-01T13:01:16.311Z,9.20
2022-11-01T13:03:57.796Z,9.52
2022-11-01T13:06:59.343Z,8.32
2022-11-01T13:09:54.488Z,8.40
2022-11-01T13:12:41.060Z,8.68
2022-11-01T13:15:25.775Z,8.43
2022-11-01T13:18:09.552Z,8.43
2022-11-01T13:21:13.404Z,7.88
2022-11-01T13:23:46.301Z,7.60
2022-11-01T13:26:25.457Z,7.97
2022-11-01T13:29:17.645Z,8.07
2022-11-01T13:32:02.817Z,9.52
2022-11-01T13:34:55.606Z,8.27
2022-11-01T13:38:12.490Z,8.70
2022-11-01T13:40:56.903Z,8.82
2022-11-01T13:43:30.193Z,8.70
2022-11-01T13:46:19.141Z,7.93
2022-11-01T13:49:10.513Z,8.32
2022-11-01T13:51:42.014Z,7.15
2022-11-01T13:54:22.864Z,7.47
2022-11-01T13:56:57.167Z,7.25
2022-11-01T13:59:47.131Z,7.03
2022-11-01T14:02:34.579Z,8.02
2022-11-01T14:05:12.636Z,7.13
2022-11-01T14:07:45.183Z,7.50
2022-11-01T14:10:31.770Z,9.25
2022-11-01T14:12:59.496Z,8.80
2022-11-01T14:15:28.153Z,7.65
2022-11-01T14:17:57.595Z,7.40
2022-11-01T14:20:31.478Z,8.18
2022-11-01T14:22:58.526Z,7.53
2022-11-01T14:25:30.099Z,7.20
2022-11-01T14:28:16.388Z,7.60
2022-11-01T14:30:46.220Z,7.20
2022-11-01T14:33:15.911Z,6.80
2022-11-01T14:35:47.110Z,7.45
2022-11-01T14:38:20.189Z,7.10
2022-11-01T14:40:59.254Z,7.25
2022-11-01T14:43:35.170Z,7.00
2022-11-01T14:46:04.729Z,7.78
2022-11-01T14:48:55.605Z,6.80
2022-11-01T14:51:30.883Z,7.03
2022-11-01T14:54:04.681Z,7.32
2022-11-01T14:56:38.442Z,6.63
2022-11-01T14:59:24.811Z,7.07
2022-11-01T15:01:58.154Z,7.15
2022-11-01T15:04:32.367Z,6.47
2022-11-01T15:07:00.198Z,6.20
2022-11-01T15:09:28.701Z,7.22
2022-11-01T15:12:03.579Z,6.20
2022-11-01T15:14:38.744Z,6.55
2022-11-01T15:17:07.570Z,6.65
2022-11-01T15:19:37.891Z,6.57
2022-11-01T15:22:06.398Z,6.80
2022-11-01T15:24:34.678Z,6.30
2022-11-01T15:27:07.337Z,7.18
2022-11-01T15:29:33.911Z,7.28
2022-11-01T15:32:01.745Z,6.65
2022-11-01T15:34:30.672Z,6.28
2022-11-01T15:36:59.791Z,7.10
2022-11-01T15:39:29.327Z,7.50
2022-11-01T15:42:07.019Z,7.18
2022-11-01T15:44:33.433Z,7.32
2022-11-01T15:47:02.101Z,7.35
2022-11-01T15:49:36.997Z,7.75
2022-11-01T15:52:15.046Z,6.05
2022-11-01T15:54:55.279Z,7.10
2022-11-01T15:57:33.734Z,6.65
2022-11-01T16:00:07.127Z,7.25
2022-11-01T16:05:12.429Z,7.20
2022-11-01T16:07:40.291Z,7.93
2022-11-01T16:10:09.220Z,7.55
2022-11-01T16:12:38.549Z,7.60
2022-11-01T16:15:23.819Z,7.07
2022-11-01T16:17:52.245Z,7.38
2022-11-01T16:20:37.377Z,7.22
2022-11-01T16:23:06.416Z,9.40
2022-11-01T16:25:38.032Z,9.32
2022-11-01T16:28:09.052Z,9.55
2022-11-01T16:30:36.527Z,11.00
2022-11-01T16:33:20.349Z,9.35
2022-11-01T16:35:49.493Z,10.57
2022-11-01T16:38:35.895Z,9.88
2022-11-01T16:41:13.913Z,9.15
2022-11-01T16:43:40.375Z,10.35
2022-11-01T16:46:06.796Z,9.45
2022-11-01T16:48:47.413Z,10.60
2022-11-01T16:51:14.466Z,9.77
2022-11-01T16:53:40.900Z,8.57
2022-11-01T16:56:34.984Z,8.00
2022-11-01T16:59:04.415Z,7.80
2022-11-01T17:01:35.404Z,7.65
2022-11-01T17:04:02.952Z,7.68
2022-11-01T17:06:32.274Z,8.38
2022-11-01T17:09:01.070Z,8.25
2022-11-01T17:11:27.444Z,9.10
2022-11-01T17:13:53.870Z,9.07
2022-11-01T17:16:23.749Z,7.82
2022-11-01T17:18:54.194Z,8.48
2022-11-01T17:21:21.457Z,9.75
2022-11-01T17:23:48.297Z,9.13
2022-11-01T17:26:16.122Z,9.40
2022-11-01T17:28:45.502Z,21.98
2022-11-01T17:31:14.284Z,15.43
2022-11-01T17:33:40.844Z,9.77
2022-11-01T17:36:13.032Z,10.45
2022-11-01T17:38:40.378Z,10.60
2022-11-01T17:41:10.837Z,11.63
2022-11-01T17:43:37.559Z,11.13
2022-11-01T17:46:14.563Z,9.63
2022-11-01T17:48:41.057Z,8.73
2022-11-01T17:51:07.448Z,10.63
2022-11-01T17:53:34.734Z,12.07
2022-11-01T17:56:01.152Z,9.27
2022-11-01T17:58:27.577Z,9.10
2022-11-01T18:00:54.004Z,9.80
2022-11-01T18:03:20.438Z,9.88
2022-11-01T18:05:46.812Z,10.50
2022-11-01T18:08:17.785Z,9.38
2022-11-01T18:13:49.637Z,9.07
2022-11-01T18:16:24.507Z,9.30
2022-11-01T18:19:34.980Z,8.95
2022-11-01T18:22:19.873Z,9.20
2022-11-01T18:25:02.542Z,10.15
2022-11-01T18:27:37.489Z,9.40
2022-11-01T18:30:18.803Z,9.82
2022-11-01T18:32:50.807Z,10.38
2022-11-01T18:35:24.040Z,10.10
2022-11-01T18:38:23.416Z,9.65
2022-11-01T18:41:00.318Z,9.82
2022-11-01T18:43:37.894Z,10.40
2022-11-01T18:46:27.067Z,9.93
2022-11-01T18:49:00.462Z,8.68
2022-11-01T18:51:33.048Z,8.18
2022-11-01T18:54:26.745Z,8.00
2022-11-01T18:57:04.137Z,6.40
2022-11-01T18:59:35.535Z,6.55
2022-11-01T19:02:11.089Z,6.15
2022-11-01T19:04:39.260Z,7.65
2022-11-01T19:07:19.087Z,8.10
2022-11-01T19:09:54.314Z,8.75
2022-11-01T19:12:29.754Z,7.47
2022-11-01T19:14:59.585Z,7.85
2022-11-01T19:17:28.630Z,8.60
2022-11-01T19:19:56.818Z,9.57
2022-11-01T19:22:37.206Z,5.85
2022-11-01T19:25:15.972Z,7.65
2022-11-01T19:27:43.065Z,7.60
2022-11-01T19:30:23.893Z,6.22
2022-11-01T19:32:51.905Z,5.97
2022-11-01T19:35:22.005Z,7.70
2022-11-01T19:37:52.445Z,7.80
2022-11-01T19:40:28.382Z,10.77
2022-11-01T19:42:57.412Z,10.68
2022-11-01T19:45:29.709Z,10.95
2022-11-01T19:47:57.965Z,10.82
2022-11-01T19:50:31.377Z,12.05
2022-11-01T19:52:58.581Z,11.68
2022-11-01T19:55:36.520Z,10.98
2022-11-01T19:58:22.620Z,9.52
2022-11-01T20:00:49.594Z,5.72
2022-11-01T20:03:37.537Z,5.18
2022-11-01T20:06:11.250Z,3.60
2022-11-01T20:08:37.681Z,3.42
2022-11-01T20:11:04.064Z,4.28
2022-11-01T20:13:30.485Z,4.85
2022-11-01T20:15:56.891Z,4.93
2022-11-01T20:18:23.284Z,5.97
2022-11-01T20:20:49.721Z,6.30
2022-11-01T20:23:31.591Z,6.28
2022-11-01T20:25:58.207Z,7.47
2022-11-01T20:28:24.597Z,8.68
2022-11-01T20:30:51.405Z,8.55
2022-11-01T20:33:18.085Z,9.25
2022-11-01T20:35:44.478Z,10.65
2022-11-01T20:38:10.937Z,10.35
2022-11-01T20:40:37.382Z,10.00
2022-11-01T20:43:04.372Z,9.32
2022-11-01T20:45:31.053Z,9.75
2022-11-01T20:47:57.474Z,9.73
2022-11-01T20:50:23.870Z,9.60
2022-11-01T20:52:50.309Z,8.98
2022-11-01T20:55:17.207Z,9.50
2022-11-01T20:57:43.824Z,10.43
2022-11-01T21:00:13.842Z,11.45
2022-11-01T21:02:40.625Z,11.20
2022-11-01T21:05:18.104Z,11.13
2022-11-01T21:07:47.761Z,10.10
2022-11-01T21:10:37.772Z,10.33
2022-11-01T21:13:21.704Z,11.82
2022-11-01T21:15:48.608Z,13.93
2022-11-01T21:18:14.918Z,15.35
2022-11-01T21:20:44.706Z,15.32
2022-11-01T21:23:26.874Z,15.90
2022-11-01T21:25:57.779Z,16.10
2022-11-01T21:28:34.008Z,15.73
2022-11-01T21:31:17.202Z,15.15
2022-11-01T21:33:58.742Z,13.70
2022-11-01T21:36:36.014Z,11.55
2022-11-01T21:39:10.063Z,11.18
2022-11-01T21:41:42.083Z,12.95
2022-11-01T21:44:20.455Z,17.30
2022-11-01T21:47:08.849Z,21.08
2022-11-01T21:49:36.526Z,18.20
2022-11-01T21:52:05.520Z,17.50
2022-11-01T21:54:34.199Z,16.27
2022-11-01T21:57:01.590Z,14.98
2022-11-01T21:59:28.519Z,16.23
2022-11-01T22:01:56.202Z,13.48
2022-11-01T22:04:24.842Z,14.65
2022-11-01T22:06:55.000Z,14.60
2022-11-01T22:09:21.645Z,12.82
2022-11-01T22:11:48.014Z,13.25
2022-11-01T22:14:14.405Z,13.35
2022-11-01T22:16:40.819Z,13.38
2022-11-01T22:19:07.734Z,12.90
2022-11-01T22:21:34.199Z,14.93
2022-11-01T22:24:01.316Z,12.35
2022-11-01T22:26:27.810Z,12.57
2022-11-01T22:28:54.204Z,13.35
2022-11-01T22:31:21.052Z,13.07
2022-11-01T22:33:51.138Z,13.77
2022-11-01T22:38:50.364Z,12.52
2022-11-01T22:41:27.085Z,13.18
2022-11-01T22:43:59.329Z,12.07
2022-11-01T22:46:30.063Z,11.38
2022-11-01T22:49:01.853Z,9.45
2022-11-01T22:51:40.834Z,8.32
2022-11-01T22:54:41.197Z,9.10
2022-11-01T22:57:21.834Z,9.03
2022-11-01T22:59:52.413Z,9.40
2022-11-01T23:02:29.107Z,8.88
2022-11-01T23:05:20.291Z,8.95
2022-11-01T23:07:54.528Z,7.28
2022-11-01T23:10:27.372Z,7.85
2022-11-01T23:13:34.224Z,6.45
2022-11-01T23:16:03.092Z,5.50
2022-11-01T23:18:32.787Z,5.93
2022-11-01T23:21:02.958Z,5.25
2022-11-01T23:23:29.355Z,5.20
2022-11-01T23:25:59.152Z,4.78
2022-11-01T23:28:26.976Z,4.75
2022-11-01T23:30:54.152Z,4.20
2022-11-01T23:33:22.441Z,4.47
2022-11-01T23:35:53.393Z,4.32
2022-11-01T23:41:04.630Z,4.00
2022-11-01T23:43:35.965Z,4.25
2022-11-01T23:46:02.401Z,3.60
2022-11-01T23:48:29.330Z,3.85
2022-11-01T23:50:56.528Z,4.10
2022-11-01T23:53:31.905Z,4.03
2022-11-01T23:55:59.614Z,3.20
2022-11-01T23:58:31.166Z,3.65
